MSR758 EHAM-HECA
Flight info
| Callsign | MSR758 |
|---|---|
| Flight time | N/A |
| Altitude | 35000 |
| Route | EDUPO Z739 MISGO/N0480F370 DCT DOJOH DCT DODEN DCT NEGIX DCT DINKU M867 XERUM DCT BAVAX DCT RADIZ DCT NEMEK DCT MAVAR DCT BITLA DCT KPC UN139 KUMBI L612 BLT A16 CVO |
| Aircraft | B77W/H-SDE1E2E3FGHIJ2J3J4J5M1RWXY/LB1D1 |
Departure
| Time | 2026-05-05 19:05 |
|---|---|
| Airport | Amsterdam Airport Schiphol (EHAM) |
Arrival
| Time | N/A |
|---|---|
| Airport | Cairo International Airport (HECA) |
| Time | Latitude | Longitude | Altitude | Speed | Heading |
|---|---|---|---|---|---|
| 2026-05-05 18:23 | 52.31234 | 4.75827 | 4 ft | 0 kts | 267° |
| 2026-05-05 18:47 | 52.31235 | 4.75849 | 4 ft | 3 kts | 275° |
| 2026-05-05 18:47 | 52.31233 | 4.75880 | 4 ft | 3 kts | 278° |
| 2026-05-05 18:47 | 52.31232 | 4.75898 | 5 ft | 1 kts | 313° |
| 2026-05-05 18:47 | 52.31230 | 4.75905 | 7 ft | 0 kts | 357° |
| 2026-05-05 18:52 | 52.31256 | 4.75910 | 5 ft | 5 kts | 10° |
| 2026-05-05 18:52 | 52.31291 | 4.75920 | 4 ft | 5 kts | 8° |
| 2026-05-05 18:53 | 52.31325 | 4.75924 | 4 ft | 5 kts | 1° |
| 2026-05-05 18:53 | 52.31361 | 4.75920 | 4 ft | 5 kts | 351° |
| 2026-05-05 18:53 | 52.31379 | 4.75913 | 4 ft | 0 kts | 346° |
| 2026-05-05 18:53 | 52.31400 | 4.75911 | 4 ft | 4 kts | 357° |
| 2026-05-05 18:54 | 52.31424 | 4.75904 | 4 ft | 4 kts | 333° |
| 2026-05-05 18:54 | 52.31432 | 4.75860 | 4 ft | 5 kts | 281° |
| 2026-05-05 18:54 | 52.31436 | 4.75781 | 4 ft | 7 kts | 271° |
| 2026-05-05 18:54 | 52.31436 | 4.75696 | 4 ft | 8 kts | 265° |
| 2026-05-05 18:55 | 52.31432 | 4.75608 | 4 ft | 8 kts | 267° |
| 2026-05-05 18:55 | 52.31430 | 4.75518 | 4 ft | 8 kts | 267° |
| 2026-05-05 18:55 | 52.31426 | 4.75428 | 4 ft | 8 kts | 265° |
| 2026-05-05 18:55 | 52.31421 | 4.75338 | 4 ft | 8 kts | 265° |
| 2026-05-05 18:56 | 52.31418 | 4.75248 | 4 ft | 8 kts | 267° |
| 2026-05-05 18:56 | 52.31415 | 4.75156 | 4 ft | 8 kts | 267° |
| 2026-05-05 18:56 | 52.31412 | 4.75063 | 4 ft | 8 kts | 267° |
| 2026-05-05 18:56 | 52.31411 | 4.74970 | 4 ft | 8 kts | 268° |
| 2026-05-05 18:57 | 52.31408 | 4.74879 | 4 ft | 8 kts | 266° |
| 2026-05-05 18:57 | 52.31405 | 4.74786 | 4 ft | 8 kts | 266° |
| 2026-05-05 18:57 | 52.31402 | 4.74693 | 4 ft | 8 kts | 267° |
| 2026-05-05 18:57 | 52.31399 | 4.74598 | 4 ft | 8 kts | 267° |
| 2026-05-05 18:58 | 52.31396 | 4.74501 | 4 ft | 9 kts | 267° |
| 2026-05-05 18:58 | 52.31393 | 4.74404 | 4 ft | 9 kts | 266° |
| 2026-05-05 18:58 | 52.31389 | 4.74307 | 4 ft | 9 kts | 266° |
| 2026-05-05 18:58 | 52.31387 | 4.74209 | 4 ft | 8 kts | 269° |
| 2026-05-05 18:59 | 52.31366 | 4.74127 | 4 ft | 8 kts | 207° |
| 2026-05-05 18:59 | 52.31308 | 4.74130 | 4 ft | 8 kts | 180° |
| 2026-05-05 18:59 | 52.31245 | 4.74126 | 4 ft | 11 kts | 184° |
| 2026-05-05 18:59 | 52.31158 | 4.74117 | 4 ft | 14 kts | 184° |
| 2026-05-05 19:00 | 52.31052 | 4.74106 | 4 ft | 17 kts | 184° |
| 2026-05-05 19:00 | 52.30932 | 4.74095 | 4 ft | 17 kts | 183° |
| 2026-05-05 19:00 | 52.30812 | 4.74084 | 4 ft | 17 kts | 183° |
| 2026-05-05 19:00 | 52.30691 | 4.74075 | 4 ft | 17 kts | 182° |
| 2026-05-05 19:01 | 52.30571 | 4.74066 | 4 ft | 17 kts | 184° |
| 2026-05-05 19:01 | 52.30465 | 4.74055 | 4 ft | 12 kts | 183° |
| 2026-05-05 19:01 | 52.30379 | 4.74049 | 4 ft | 12 kts | 184° |
| 2026-05-05 19:01 | 52.30311 | 4.74017 | 5 ft | 10 kts | 207° |
| 2026-05-05 19:02 | 52.30252 | 4.73953 | 4 ft | 10 kts | 215° |
| 2026-05-05 19:02 | 52.30204 | 4.73871 | 3 ft | 10 kts | 242° |
| 2026-05-05 19:02 | 52.30199 | 4.73760 | 3 ft | 10 kts | 292° |
| 2026-05-05 19:02 | 52.30240 | 4.73734 | 2 ft | 0 kts | 6° |
| 2026-05-05 19:04 | 52.30283 | 4.73741 | 1 ft | 22 kts | 4° |
| 2026-05-05 19:04 | 52.30693 | 4.73782 | 3 ft | 97 kts | 3° |
| 2026-05-05 19:04 | 52.31597 | 4.73866 | 5 ft | 160 kts | 3° |
| 2026-05-05 19:05 | 52.32766 | 4.73970 | 552 ft | 164 kts | 4° |
| 2026-05-05 19:05 | 52.33900 | 4.74076 | 1434 ft | 162 kts | 13° |
| 2026-05-05 19:05 | 52.34984 | 4.74793 | 1810 ft | 183 kts | 26° |
| 2026-05-05 19:05 | 52.36227 | 4.75736 | 2067 ft | 211 kts | 25° |
| 2026-05-05 19:06 | 52.37637 | 4.76822 | 2464 ft | 228 kts | 31° |
| 2026-05-05 19:06 | 52.38849 | 4.78535 | 3160 ft | 234 kts | 47° |
| 2026-05-05 19:06 | 52.39970 | 4.80508 | 3967 ft | 238 kts | 45° |
| 2026-05-05 19:06 | 52.41116 | 4.82454 | 4887 ft | 239 kts | 45° |
| 2026-05-05 19:07 | 52.42115 | 4.84679 | 5467 ft | 250 kts | 67° |
| 2026-05-05 19:07 | 52.42418 | 4.87482 | 6130 ft | 262 kts | 87° |
| 2026-05-05 19:07 | 52.42416 | 4.90529 | 6738 ft | 272 kts | 88° |
| 2026-05-05 19:07 | 52.42416 | 4.93677 | 7447 ft | 278 kts | 89° |
| 2026-05-05 19:08 | 52.42342 | 4.96856 | 8163 ft | 282 kts | 101° |
| 2026-05-05 19:08 | 52.41490 | 4.99753 | 8862 ft | 287 kts | 131° |
| 2026-05-05 19:08 | 52.39953 | 5.01836 | 9585 ft | 290 kts | 145° |
| 2026-05-05 19:08 | 52.38272 | 5.03742 | 10233 ft | 296 kts | 145° |
| 2026-05-05 19:09 | 52.36526 | 5.05728 | 10562 ft | 319 kts | 145° |
| 2026-05-05 19:09 | 52.34622 | 5.07907 | 10765 ft | 345 kts | 145° |
| 2026-05-05 19:09 | 52.32662 | 5.10376 | 10960 ft | 368 kts | 136° |
| 2026-05-05 19:09 | 52.30921 | 5.13450 | 11634 ft | 378 kts | 130° |
| 2026-05-05 19:10 | 52.29220 | 5.16773 | 12502 ft | 382 kts | 130° |
| 2026-05-05 19:10 | 52.27485 | 5.20090 | 12937 ft | 387 kts | 131° |
| 2026-05-05 19:10 | 52.25681 | 5.23413 | 12901 ft | 390 kts | 131° |
| 2026-05-05 19:10 | 52.23889 | 5.26707 | 12904 ft | 388 kts | 129° |
| 2026-05-05 19:11 | 52.22253 | 5.30228 | 13399 ft | 392 kts | 125° |
| 2026-05-05 19:11 | 52.20696 | 5.33910 | 14375 ft | 395 kts | 124° |
| 2026-05-05 19:11 | 52.19145 | 5.37626 | 15396 ft | 396 kts | 124° |
| 2026-05-05 19:11 | 52.17577 | 5.41340 | 16347 ft | 400 kts | 124° |
| 2026-05-05 19:12 | 52.15978 | 5.45074 | 17196 ft | 405 kts | 125° |
| 2026-05-05 19:12 | 52.14343 | 5.48849 | 18122 ft | 409 kts | 125° |
| 2026-05-05 19:12 | 52.12684 | 5.52652 | 18908 ft | 413 kts | 126° |
| 2026-05-05 19:12 | 52.11011 | 5.56474 | 19677 ft | 417 kts | 126° |
| 2026-05-05 19:13 | 52.09322 | 5.60330 | 20440 ft | 421 kts | 127° |
| 2026-05-05 19:13 | 52.07606 | 5.64237 | 21090 ft | 428 kts | 127° |
| 2026-05-05 19:13 | 52.05858 | 5.68185 | 21836 ft | 431 kts | 128° |
| 2026-05-05 19:13 | 52.03981 | 5.71914 | 22586 ft | 433 kts | 133° |
| 2026-05-05 19:14 | 52.01964 | 5.75570 | 23294 ft | 437 kts | 134° |
| 2026-05-05 19:14 | 51.99918 | 5.79277 | 23901 ft | 441 kts | 133° |
| 2026-05-05 19:14 | 51.97886 | 5.83038 | 24525 ft | 444 kts | 133° |
| 2026-05-05 19:14 | 51.95858 | 5.86829 | 24899 ft | 446 kts | 133° |
| 2026-05-05 19:15 | 51.93812 | 5.90645 | 24883 ft | 449 kts | 133° |
| 2026-05-05 19:15 | 51.91759 | 5.94467 | 25355 ft | 451 kts | 133° |
| 2026-05-05 19:15 | 51.89697 | 5.98302 | 26035 ft | 451 kts | 133° |
| 2026-05-05 19:15 | 51.87629 | 6.02140 | 26682 ft | 452 kts | 133° |